This is the latest recevied weather packets stored in our database for station/object F4LNO-10. If no packets are shown the sender has not sent any weather packets the latest 10 day(s).
| Time | Temp. | Humidity | Pressure | Rain* | Wind** | Luminosity | Snow |
|---|---|---|---|---|---|---|---|
| 1777503060 | 22.78° C | 46% | 1016.3 hPa | - | - | - | - |
| 1777502159 | 22.78° C | 46% | 1016.3 hPa | - | - | - | - |
| 1777501258 | 22.78° C | 46% | 1016.3 hPa | - | - | - | - |
| 1777500357 | 22.78° C | 46% | 1016.3 hPa | - | - | - | - |
| 1777499456 | 22.78° C | 46% | 1016.2 hPa | - | - | - | - |
| 1777498556 | 22.78° C | 46% | 1016.3 hPa | - | - | - | - |
| 1777497655 | 22.78° C | 45% | 1016.2 hPa | - | - | - | - |
| 1777496754 | 23.33° C | 45% | 1015.9 hPa | - | - | - | - |
| 1777495853 | 22.78° C | 45% | 1015.9 hPa | - | - | - | - |
| 1777494952 | 22.78° C | 45% | 1015.8 hPa | - | - | - | - |
| 1777494051 | 23.33° C | 45% | 1015.7 hPa | - | - | - | - |
| 1777493150 | 23.33° C | 44% | 1015.5 hPa | - | - | - | - |
| 1777492249 | 23.33° C | 44% | 1015.3 hPa | - | - | - | - |
| 1777491369 | 22.78° C | 44% | 1015 hPa | - | - | - | - |
| 1777490468 | 22.78° C | 43% | 1014.7 hPa | - | - | - | - |
| 1777489567 | 22.78° C | 44% | 1014.5 hPa | - | - | - | - |
| 1777488666 | 22.22° C | 46% | 1014.6 hPa | - | - | - | - |
| 1777487765 | 22.78° C | 46% | 1014.6 hPa | - | - | - | - |
| 1777486864 | 22.22° C | 47% | 1014.7 hPa | - | - | - | - |
| 1777485963 | 20.56° C | 50% | 1014.7 hPa | - | - | - | - |
| 1777485063 | 21.11° C | 51% | 1014.6 hPa | - | - | - | - |
| 1777484162 | 22.22° C | 48% | 1014.5 hPa | - | - | - | - |
| 1777483261 | 22.22° C | 48% | 1014.7 hPa | - | - | - | - |
| 1777482360 | 22.78° C | 49% | 1014.7 hPa | - | - | - | - |
| 1777481459 | 22.78° C | 50% | 1014.8 hPa | - | - | - | - |
* Rain since midnight (hover to see other rain measurements)
** Current wind speed in m/s (hover to see current wind gust speed)